Terminal Aerodrome Forecast
Issued by NWS Riverton, WY

Home | Current Version | Previous Version | Text Only | Print | Product List | Glossary On
Versions: 1 2 3 4 5 6 7 8 9 10 11 12 13 14 15
627
FTUS45 KRIW 221123
TAFRIW
TAF
KRIW 221123Z 2212/2312 27008KT P6SM FEW100 BKN200
     FM221600 VRB06KT P6SM SCT070 BKN200
     FM222300 36006KT P6SM SCT060 BKN110
     FM230200 03011KT P6SM BKN060
     FM230700 03014KT 2SM -SN OVC012=

USA.gov is the U.S. government's official web portal to all federal, state and local government web resources and services.